createdAt,value
2023-06-18T00:02:12.752Z,14.90
2023-06-18T00:04:40.049Z,14.90
2023-06-18T00:07:07.436Z,14.90
2023-06-18T00:09:34.704Z,14.90
2023-06-18T00:12:01.881Z,14.80
2023-06-18T00:14:29.526Z,14.80
2023-06-18T00:16:56.775Z,14.70
2023-06-18T00:19:24.003Z,14.70
2023-06-18T00:21:51.264Z,14.80
2023-06-18T00:24:18.467Z,14.70
2023-06-18T00:26:45.677Z,14.70
2023-06-18T00:29:13.010Z,14.70
2023-06-18T00:31:40.237Z,14.70
2023-06-18T00:34:08.371Z,14.70
2023-06-18T00:36:40.620Z,14.70
2023-06-18T00:39:08.481Z,14.70
2023-06-18T00:41:36.493Z,14.70
2023-06-18T00:44:04.595Z,14.70
2023-06-18T00:46:32.128Z,14.60
2023-06-18T00:49:00.001Z,14.60
2023-06-18T00:51:32.556Z,14.50
2023-06-18T00:53:59.959Z,14.40
2023-06-18T00:56:30.830Z,14.40
2023-06-18T00:58:58.691Z,14.40
2023-06-18T01:01:27.363Z,14.40
2023-06-18T01:03:58.458Z,14.30
2023-06-18T01:06:27.696Z,14.30
2023-06-18T01:08:57.576Z,14.20
2023-06-18T01:11:25.399Z,14.20
2023-06-18T01:13:53.690Z,14.20
2023-06-18T01:16:25.580Z,14.10
2023-06-18T01:18:53.850Z,14.10
2023-06-18T01:21:24.563Z,14.10
2023-06-18T01:24:13.571Z,14.10
2023-06-18T01:26:46.016Z,14.10
2023-06-18T01:29:14.205Z,14.10
2023-06-18T01:31:45.908Z,14.10
2023-06-18T01:34:13.983Z,14.20
2023-06-18T01:37:19.451Z,14.10
2023-06-18T01:39:58.109Z,14.10
2023-06-18T01:42:28.892Z,14.10
2023-06-18T01:45:03.904Z,14.10
2023-06-18T01:47:33.043Z,14.10
2023-06-18T01:50:01.999Z,14.00
2023-06-18T01:52:34.395Z,14.00
2023-06-18T01:55:05.034Z,14.00
2023-06-18T01:57:35.415Z,14.00
2023-06-18T02:00:03.567Z,14.00
2023-06-18T02:02:30.958Z,14.00
2023-06-18T02:04:58.448Z,13.90
2023-06-18T02:07:25.743Z,13.90
2023-06-18T02:09:53.009Z,13.90
2023-06-18T02:12:20.242Z,13.90
2023-06-18T02:14:47.522Z,13.90
2023-06-18T02:17:14.734Z,13.90
2023-06-18T02:19:41.885Z,13.90
2023-06-18T02:22:09.094Z,13.90
2023-06-18T02:24:36.507Z,13.90
2023-06-18T02:27:03.958Z,13.90
2023-06-18T02:29:31.476Z,13.80
2023-06-18T02:31:58.584Z,13.80
2023-06-18T02:34:28.565Z,13.70
2023-06-18T02:36:58.461Z,13.70
2023-06-18T02:39:25.640Z,13.60
2023-06-18T02:41:52.868Z,13.60
2023-06-18T02:44:21.243Z,13.70
2023-06-18T02:46:48.445Z,13.70
2023-06-18T02:49:15.589Z,13.70
2023-06-18T02:51:42.748Z,13.70
2023-06-18T02:54:10.015Z,13.70
2023-06-18T02:56:37.213Z,13.70
2023-06-18T02:59:04.503Z,13.70
2023-06-18T03:01:33.010Z,13.70
2023-06-18T03:04:00.277Z,13.70
2023-06-18T03:06:28.766Z,13.70
2023-06-18T03:08:55.936Z,13.70
2023-06-18T03:11:24.372Z,13.70
2023-06-18T03:13:52.547Z,13.70
2023-06-18T03:16:20.002Z,13.70
2023-06-18T03:18:47.330Z,13.70
2023-06-18T03:21:16.466Z,13.70
2023-06-18T03:23:44.740Z,13.70
2023-06-18T03:26:12.918Z,13.80
2023-06-18T03:28:40.157Z,13.80
2023-06-18T03:31:07.757Z,13.90
2023-06-18T03:33:34.935Z,14.10
2023-06-18T03:36:02.296Z,14.40
2023-06-18T03:38:30.063Z,14.70
2023-06-18T03:40:57.308Z,15.10
2023-06-18T03:43:24.720Z,15.40
2023-06-18T03:45:51.997Z,15.70
2023-06-18T03:48:19.356Z,16.10
2023-06-18T03:50:46.557Z,16.50
2023-06-18T03:53:13.740Z,16.70
2023-06-18T03:55:43.158Z,16.90
2023-06-18T03:58:10.397Z,17.10
2023-06-18T04:00:37.570Z,17.20
2023-06-18T04:03:06.884Z,17.20
2023-06-18T04:05:34.156Z,17.30
2023-06-18T04:08:01.454Z,17.30
2023-06-18T04:10:28.752Z,17.40
2023-06-18T04:12:55.915Z,17.40
2023-06-18T04:15:23.142Z,17.50
2023-06-18T04:17:50.350Z,17.70
2023-06-18T04:20:18.048Z,17.80
2023-06-18T04:22:45.228Z,17.80
2023-06-18T04:25:12.682Z,17.90
2023-06-18T04:27:40.842Z,18.10
2023-06-18T04:30:09.367Z,18.30
2023-06-18T04:32:36.505Z,18.40
2023-06-18T04:35:03.846Z,18.50
2023-06-18T04:37:32.537Z,18.70
2023-06-18T04:39:59.802Z,18.80
2023-06-18T04:42:27.031Z,19.00
2023-06-18T04:44:54.270Z,19.10
2023-06-18T04:47:21.492Z,19.20
2023-06-18T04:49:49.138Z,19.30
2023-06-18T04:52:16.402Z,19.50
2023-06-18T04:54:43.647Z,19.60
2023-06-18T04:57:13.790Z,19.80
2023-06-18T04:59:42.140Z,19.90
2023-06-18T05:02:09.636Z,20.00
2023-06-18T05:04:36.923Z,20.00
2023-06-18T05:07:04.592Z,20.20
2023-06-18T05:09:32.003Z,20.40
2023-06-18T05:11:59.150Z,20.60
2023-06-18T05:14:27.898Z,20.60
2023-06-18T05:16:55.506Z,20.80
2023-06-18T05:19:22.726Z,20.60
2023-06-18T05:21:49.986Z,20.60
2023-06-18T05:24:17.254Z,20.50
2023-06-18T05:26:44.821Z,20.20
2023-06-18T05:29:12.022Z,20.50
2023-06-18T05:31:39.115Z,20.80
2023-06-18T05:34:06.319Z,21.00
2023-06-18T05:36:33.420Z,21.20
2023-06-18T05:39:01.604Z,21.00
2023-06-18T05:41:29.133Z,21.10
2023-06-18T05:43:56.481Z,21.30
2023-06-18T05:46:23.708Z,21.30
2023-06-18T05:48:50.856Z,21.20
2023-06-18T05:51:18.102Z,21.40
2023-06-18T05:53:45.370Z,21.50
2023-06-18T05:56:12.509Z,21.80
2023-06-18T05:58:39.798Z,21.60
2023-06-18T06:01:07.259Z,21.80
2023-06-18T06:03:36.590Z,22.00
2023-06-18T06:06:04.365Z,22.10
2023-06-18T06:08:31.551Z,22.10
2023-06-18T06:10:58.996Z,22.30
2023-06-18T06:13:26.242Z,22.50
2023-06-18T06:15:53.440Z,22.40
2023-06-18T06:18:20.789Z,22.60
2023-06-18T06:20:47.922Z,22.50
2023-06-18T06:23:15.050Z,22.80
2023-06-18T06:25:42.255Z,23.10
2023-06-18T06:28:09.528Z,23.00
2023-06-18T06:30:37.137Z,22.70
2023-06-18T06:33:04.782Z,22.60
2023-06-18T06:35:32.891Z,23.00
2023-06-18T06:38:00.094Z,23.30
2023-06-18T06:40:27.336Z,23.40
2023-06-18T06:42:54.500Z,23.50
2023-06-18T06:45:21.728Z,23.70
2023-06-18T06:47:49.680Z,23.60
2023-06-18T06:50:17.303Z,23.60
2023-06-18T06:52:44.476Z,23.60
2023-06-18T06:55:11.643Z,23.80
2023-06-18T06:57:39.549Z,24.00
2023-06-18T07:00:08.477Z,23.70
2023-06-18T07:02:35.768Z,23.90
2023-06-18T07:05:03.527Z,24.10
2023-06-18T07:07:31.912Z,24.10
2023-06-18T07:09:59.063Z,24.30
2023-06-18T07:12:26.339Z,24.50
2023-06-18T07:14:53.552Z,24.70
2023-06-18T07:17:20.936Z,24.60
2023-06-18T07:19:48.188Z,24.60
2023-06-18T07:22:15.335Z,24.60
2023-06-18T07:24:42.524Z,24.70
2023-06-18T07:27:09.629Z,24.90
2023-06-18T07:29:36.933Z,24.90
2023-06-18T07:32:04.322Z,24.90
2023-06-18T07:34:31.603Z,24.90
2023-06-18T07:36:58.871Z,25.10
2023-06-18T07:39:27.686Z,25.10
2023-06-18T07:41:54.982Z,25.30
2023-06-18T07:44:22.187Z,25.30
2023-06-18T07:46:49.654Z,25.50
2023-06-18T07:49:18.102Z,25.40
2023-06-18T07:51:45.328Z,25.50
2023-06-18T07:54:12.575Z,25.50
2023-06-18T07:56:39.881Z,25.70
2023-06-18T07:59:07.029Z,25.90
2023-06-18T08:01:35.039Z,25.90
2023-06-18T08:04:02.374Z,26.00
2023-06-18T08:06:29.635Z,26.00
2023-06-18T08:08:56.913Z,26.00
2023-06-18T08:11:25.000Z,26.00
2023-06-18T08:13:52.156Z,26.30
2023-06-18T08:16:19.428Z,26.30
2023-06-18T08:18:46.728Z,26.30
2023-06-18T08:21:14.016Z,26.50
2023-06-18T08:23:41.153Z,26.70
2023-06-18T08:26:08.274Z,26.60
2023-06-18T08:28:35.549Z,26.60
2023-06-18T08:31:02.765Z,26.70
2023-06-18T08:33:29.883Z,26.70
2023-06-18T08:35:57.081Z,26.80
2023-06-18T08:38:24.308Z,26.90
2023-06-18T08:40:53.758Z,26.90
2023-06-18T08:43:27.598Z,26.90
2023-06-18T08:45:55.520Z,27.00
2023-06-18T08:48:32.536Z,27.10
2023-06-18T08:51:05.243Z,27.10
2023-06-18T08:54:01.692Z,27.20
2023-06-18T08:56:30.620Z,27.20
2023-06-18T08:58:59.028Z,27.20
2023-06-18T09:01:27.595Z,26.90
2023-06-18T09:03:56.672Z,27.00
2023-06-18T09:06:24.589Z,27.00
2023-06-18T09:08:52.099Z,27.20
2023-06-18T09:11:19.362Z,27.20
2023-06-18T09:13:46.678Z,27.40
2023-06-18T09:16:14.038Z,27.50
2023-06-18T09:18:41.674Z,27.60
2023-06-18T09:21:09.341Z,27.50
2023-06-18T09:23:36.601Z,27.40
2023-06-18T09:26:03.895Z,27.40
2023-06-18T09:28:31.325Z,27.40
2023-06-18T09:31:02.793Z,27.40
2023-06-18T09:33:34.585Z,27.50
2023-06-18T09:36:10.305Z,27.30
2023-06-18T09:38:39.768Z,27.50
2023-06-18T09:41:14.720Z,27.70
2023-06-18T09:43:44.681Z,27.90
2023-06-18T09:46:13.035Z,28.00
2023-06-18T09:48:46.633Z,27.90
2023-06-18T09:51:18.380Z,28.00
2023-06-18T09:53:45.579Z,28.00
2023-06-18T09:56:17.012Z,27.80
2023-06-18T09:58:52.002Z,27.60
2023-06-18T10:01:21.319Z,27.60
2023-06-18T10:03:49.353Z,27.40
2023-06-18T10:06:19.850Z,27.60
2023-06-18T10:08:49.071Z,27.80
2023-06-18T10:11:18.186Z,27.90
2023-06-18T10:13:51.773Z,27.90
2023-06-18T10:16:20.613Z,27.70
2023-06-18T10:18:57.490Z,27.70
2023-06-18T10:21:26.385Z,27.70
2023-06-18T10:24:18.381Z,27.40
2023-06-18T10:26:46.797Z,27.50
2023-06-18T10:29:14.351Z,27.70
2023-06-18T10:31:43.279Z,28.00
2023-06-18T10:34:10.531Z,28.10
2023-06-18T10:36:38.647Z,27.90
2023-06-18T10:39:12.998Z,28.10
2023-06-18T10:41:47.259Z,28.20
2023-06-18T10:44:14.543Z,28.10
2023-06-18T10:46:41.803Z,28.00
2023-06-18T10:49:21.352Z,28.10
2023-06-18T10:52:15.580Z,28.00
2023-06-18T10:54:42.911Z,27.90
2023-06-18T10:57:10.056Z,27.90
2023-06-18T10:59:44.893Z,27.90
2023-06-18T11:02:13.672Z,28.00
2023-06-18T11:04:41.640Z,28.10
2023-06-18T11:07:28.861Z,28.00
2023-06-18T11:09:59.574Z,28.20
2023-06-18T11:12:29.488Z,28.40
2023-06-18T11:15:17.652Z,28.40
2023-06-18T11:17:55.489Z,28.40
2023-06-18T11:20:24.423Z,28.30
2023-06-18T11:23:00.368Z,28.30
2023-06-18T11:25:29.010Z,28.10
2023-06-18T11:27:59.822Z,27.90
2023-06-18T11:30:27.221Z,28.00
2023-06-18T11:32:54.653Z,28.10
2023-06-18T11:35:22.411Z,28.20
2023-06-18T11:37:49.837Z,28.10
2023-06-18T11:40:16.979Z,28.30
2023-06-18T11:42:54.339Z,28.60
2023-06-18T11:45:23.073Z,28.40
2023-06-18T11:47:53.106Z,28.30
2023-06-18T11:50:26.732Z,28.20
2023-06-18T11:52:53.855Z,28.50
2023-06-18T11:55:22.184Z,28.80
2023-06-18T11:57:49.817Z,28.90
2023-06-18T12:00:17.421Z,28.70
2023-06-18T12:02:44.648Z,28.60
2023-06-18T12:05:11.905Z,28.60
2023-06-18T12:07:44.131Z,28.60
2023-06-18T12:10:13.354Z,28.50
2023-06-18T12:13:03.261Z,28.50
2023-06-18T12:15:33.969Z,28.60
2023-06-18T12:18:18.071Z,28.70
2023-06-18T12:20:45.836Z,28.80
2023-06-18T12:23:13.488Z,28.70
2023-06-18T12:25:41.013Z,28.60
2023-06-18T12:28:09.050Z,28.70
2023-06-18T12:30:41.290Z,28.90
2023-06-18T12:33:11.017Z,28.90
2023-06-18T12:35:41.569Z,29.00
2023-06-18T12:38:11.438Z,29.10
2023-06-18T12:41:00.415Z,28.80
2023-06-18T12:43:27.685Z,28.90
2023-06-18T12:45:54.873Z,29.20
2023-06-18T12:48:27.859Z,29.30
2023-06-18T12:50:56.144Z,29.20
2023-06-18T12:53:28.208Z,29.30
2023-06-18T12:55:57.827Z,29.30
2023-06-18T12:58:26.890Z,29.40
2023-06-18T13:00:56.246Z,29.40
2023-06-18T13:03:26.017Z,29.10
2023-06-18T13:05:53.543Z,29.20
2023-06-18T13:08:22.668Z,29.20
2023-06-18T13:10:52.524Z,29.20
2023-06-18T13:13:20.960Z,29.30
2023-06-18T13:15:49.911Z,29.30
2023-06-18T13:18:20.605Z,29.20
2023-06-18T13:20:49.966Z,29.20
2023-06-18T13:23:17.873Z,29.20
2023-06-18T13:25:46.139Z,29.00
2023-06-18T13:28:13.482Z,29.10
2023-06-18T13:30:40.605Z,29.40
2023-06-18T13:33:07.842Z,29.30
2023-06-18T13:35:35.104Z,29.00
2023-06-18T13:38:02.384Z,28.80
2023-06-18T13:40:29.518Z,28.70
2023-06-18T13:42:56.927Z,28.70
2023-06-18T13:45:25.273Z,29.00
2023-06-18T13:47:52.922Z,29.00
2023-06-18T13:50:20.148Z,29.00
2023-06-18T13:52:47.305Z,29.30
2023-06-18T13:55:14.538Z,29.50
2023-06-18T13:57:41.869Z,29.60
2023-06-18T14:00:09.782Z,29.40
2023-06-18T14:02:37.125Z,29.20
2023-06-18T14:05:05.054Z,29.10
2023-06-18T14:07:33.621Z,29.10
2023-06-18T14:10:00.852Z,29.20
2023-06-18T14:12:28.291Z,29.20
2023-06-18T14:14:57.517Z,29.30
2023-06-18T14:17:27.183Z,29.50
2023-06-18T14:19:55.226Z,29.70
2023-06-18T14:22:22.533Z,29.70
2023-06-18T14:24:52.356Z,29.60
2023-06-18T14:27:19.533Z,29.40
2023-06-18T14:29:46.750Z,29.40
2023-06-18T14:32:13.898Z,29.40
2023-06-18T14:34:41.107Z,29.50
2023-06-18T14:37:08.577Z,29.60
2023-06-18T14:39:36.068Z,29.60
2023-06-18T14:42:03.398Z,29.70
2023-06-18T14:44:30.969Z,29.80
2023-06-18T14:46:58.185Z,30.10
2023-06-18T14:49:25.394Z,31.00
2023-06-18T14:51:52.800Z,33.00
2023-06-18T14:54:22.069Z,34.20
2023-06-18T14:56:52.374Z,35.20
2023-06-18T14:59:20.175Z,35.30
2023-06-18T15:01:47.668Z,35.40
2023-06-18T15:04:15.345Z,34.70
2023-06-18T15:06:43.909Z,35.60
2023-06-18T15:09:12.844Z,35.20
2023-06-18T15:11:39.996Z,35.00
2023-06-18T15:14:07.139Z,36.00
2023-06-18T15:16:35.766Z,36.40
2023-06-18T15:19:03.101Z,36.90
2023-06-18T15:21:30.409Z,37.30
2023-06-18T15:23:57.669Z,37.60
2023-06-18T15:26:24.823Z,38.10
2023-06-18T15:28:51.947Z,38.10
2023-06-18T15:31:19.356Z,37.00
2023-06-18T15:33:46.833Z,37.10
2023-06-18T15:36:14.178Z,37.20
2023-06-18T15:38:41.372Z,36.90
2023-06-18T15:41:10.233Z,36.10
2023-06-18T15:43:37.364Z,35.60
2023-06-18T15:46:04.583Z,34.50
2023-06-18T15:48:31.777Z,33.90
2023-06-18T15:50:59.453Z,33.20
2023-06-18T15:53:26.698Z,32.80
2023-06-18T15:55:53.912Z,32.50
2023-06-18T15:58:21.709Z,31.90
2023-06-18T16:00:49.089Z,31.50
2023-06-18T16:03:16.889Z,31.20
2023-06-18T16:05:44.528Z,31.00
2023-06-18T16:08:11.851Z,30.90
2023-06-18T16:10:39.066Z,30.50
2023-06-18T16:13:07.461Z,30.40
2023-06-18T16:15:34.673Z,30.10
2023-06-18T16:18:09.211Z,30.00
2023-06-18T16:20:38.212Z,30.10
2023-06-18T16:23:06.101Z,30.10
2023-06-18T16:25:33.727Z,29.90
2023-06-18T16:28:01.684Z,29.70
2023-06-18T16:30:30.527Z,29.70
2023-06-18T16:33:02.336Z,29.40
2023-06-18T16:35:29.733Z,29.40
2023-06-18T16:37:57.302Z,29.30
2023-06-18T16:40:26.512Z,29.40
2023-06-18T16:42:53.698Z,29.30
2023-06-18T16:45:21.175Z,29.30
2023-06-18T16:47:48.880Z,29.30
2023-06-18T16:50:16.294Z,29.20
2023-06-18T16:52:43.587Z,29.10
2023-06-18T16:55:10.943Z,29.00
2023-06-18T16:57:38.860Z,28.90
2023-06-18T17:00:06.988Z,28.80
2023-06-18T17:02:34.499Z,28.80
2023-06-18T17:05:01.926Z,28.80
2023-06-18T17:07:29.550Z,28.80
2023-06-18T17:09:57.358Z,28.70
2023-06-18T17:12:24.678Z,28.60
2023-06-18T17:14:51.900Z,28.50
2023-06-18T17:17:22.131Z,28.40
2023-06-18T17:19:49.773Z,28.20
2023-06-18T17:22:17.259Z,28.00
2023-06-18T17:24:46.826Z,27.90
2023-06-18T17:27:14.539Z,27.70
2023-06-18T17:29:42.957Z,27.60
2023-06-18T17:32:10.186Z,27.40
2023-06-18T17:34:37.389Z,27.30
2023-06-18T17:37:04.819Z,27.00
2023-06-18T17:39:32.058Z,26.80
2023-06-18T17:41:59.335Z,26.70
2023-06-18T17:44:26.674Z,26.50
2023-06-18T17:46:53.979Z,26.30
2023-06-18T17:49:21.477Z,26.10
2023-06-18T17:51:50.811Z,26.00
2023-06-18T17:54:19.071Z,25.90
2023-06-18T17:56:46.321Z,25.80
2023-06-18T17:59:14.215Z,25.70
2023-06-18T18:01:41.493Z,25.60
2023-06-18T18:04:08.798Z,25.40
2023-06-18T18:06:36.150Z,25.30
2023-06-18T18:09:03.835Z,25.20
2023-06-18T18:11:31.013Z,25.00
2023-06-18T18:13:58.192Z,24.80
2023-06-18T18:16:25.502Z,24.70
2023-06-18T18:18:53.421Z,24.50
2023-06-18T18:21:21.160Z,24.20
2023-06-18T18:23:48.453Z,24.10
2023-06-18T18:26:15.782Z,23.90
2023-06-18T18:28:43.162Z,23.70
2023-06-18T18:31:10.467Z,23.50
2023-06-18T18:33:37.692Z,23.30
2023-06-18T18:36:07.776Z,23.10
2023-06-18T18:38:35.241Z,23.00
2023-06-18T18:41:02.517Z,22.80
2023-06-18T18:43:32.517Z,22.70
2023-06-18T18:45:59.758Z,22.50
2023-06-18T18:48:28.284Z,22.40
2023-06-18T18:50:57.317Z,22.30
2023-06-18T18:53:24.455Z,22.20
2023-06-18T18:55:51.689Z,22.10
2023-06-18T18:58:19.448Z,22.10
2023-06-18T19:00:46.737Z,22.00
2023-06-18T19:03:13.984Z,21.90
2023-06-18T19:05:41.227Z,21.80
2023-06-18T19:08:08.478Z,21.70
2023-06-18T19:10:35.663Z,21.60
2023-06-18T19:13:03.677Z,21.40
2023-06-18T19:15:31.658Z,21.30
2023-06-18T19:17:58.794Z,21.20
2023-06-18T19:20:26.268Z,21.10
2023-06-18T19:22:53.642Z,21.00
2023-06-18T19:25:21.364Z,21.00
2023-06-18T19:27:48.744Z,20.90
2023-06-18T19:30:16.060Z,20.80
2023-06-18T19:32:44.531Z,20.80
2023-06-18T19:35:12.190Z,20.70
2023-06-18T19:37:39.491Z,20.60
2023-06-18T19:40:07.377Z,20.50
2023-06-18T19:42:34.605Z,20.40
2023-06-18T19:45:01.811Z,20.30
2023-06-18T19:47:30.353Z,20.30
2023-06-18T19:49:57.548Z,20.20
2023-06-18T19:52:24.920Z,20.10
2023-06-18T19:54:52.171Z,20.10
2023-06-18T19:57:19.624Z,20.00
2023-06-18T19:59:46.821Z,20.00
2023-06-18T20:02:14.008Z,19.90
2023-06-18T20:04:41.199Z,19.80
2023-06-18T20:07:10.072Z,19.80
2023-06-18T20:09:37.457Z,19.70
2023-06-18T20:12:05.000Z,19.70
2023-06-18T20:14:32.193Z,19.60
2023-06-18T20:16:59.385Z,19.50
2023-06-18T20:19:26.633Z,19.50
2023-06-18T20:21:53.854Z,19.40
2023-06-18T20:24:22.392Z,19.40
2023-06-18T20:26:49.669Z,19.30
2023-06-18T20:29:16.960Z,19.30
2023-06-18T20:31:44.114Z,19.20
2023-06-18T20:34:12.636Z,19.20
2023-06-18T20:36:39.828Z,19.10
2023-06-18T20:39:06.994Z,19.10
2023-06-18T20:41:34.152Z,19.00
2023-06-18T20:44:05.405Z,19.00
2023-06-18T20:46:32.711Z,18.90
2023-06-18T20:49:01.398Z,18.90
2023-06-18T20:51:28.746Z,18.80
2023-06-18T20:53:59.787Z,18.80
2023-06-18T20:56:34.217Z,18.80
2023-06-18T20:59:01.479Z,18.70
2023-06-18T21:01:32.297Z,18.70
2023-06-18T21:03:59.604Z,18.70
2023-06-18T21:06:27.383Z,18.60
2023-06-18T21:08:54.658Z,18.60
2023-06-18T21:11:23.523Z,18.60
2023-06-18T21:13:50.709Z,18.60
2023-06-18T21:16:17.909Z,18.60
2023-06-18T21:18:45.088Z,18.50
2023-06-18T21:21:12.983Z,18.50
2023-06-18T21:23:40.128Z,18.50
2023-06-18T21:26:07.309Z,18.50
2023-06-18T21:28:34.479Z,18.50
2023-06-18T21:31:01.802Z,18.40
2023-06-18T21:33:29.062Z,18.40
2023-06-18T21:35:56.259Z,18.40
2023-06-18T21:38:23.444Z,18.30
2023-06-18T21:40:50.959Z,18.20
2023-06-18T21:43:19.859Z,18.20
2023-06-18T21:45:48.961Z,18.20
2023-06-18T21:48:16.429Z,18.20
2023-06-18T21:50:43.754Z,18.10
2023-06-18T21:53:11.246Z,18.10
2023-06-18T21:55:38.617Z,18.10
2023-06-18T21:58:05.744Z,18.00
2023-06-18T22:00:33.035Z,18.00
2023-06-18T22:03:02.091Z,18.00
2023-06-18T22:05:29.416Z,17.90
2023-06-18T22:07:56.754Z,18.00
2023-06-18T22:10:24.521Z,17.90
2023-06-18T22:12:52.096Z,17.90
2023-06-18T22:15:19.369Z,17.90
2023-06-18T22:17:46.579Z,17.80
2023-06-18T22:20:14.536Z,17.90
2023-06-18T22:22:43.076Z,17.90
2023-06-18T22:25:10.463Z,17.90
2023-06-18T22:27:37.574Z,17.90
2023-06-18T22:30:05.953Z,17.80
2023-06-18T22:32:33.130Z,17.80
2023-06-18T22:35:00.337Z,17.80
2023-06-18T22:37:27.593Z,17.70
2023-06-18T22:39:54.829Z,17.70
2023-06-18T22:42:22.070Z,17.70
2023-06-18T22:44:49.375Z,17.60
2023-06-18T22:47:16.600Z,17.60
2023-06-18T22:49:43.772Z,17.60
2023-06-18T22:52:11.096Z,17.50
2023-06-18T22:54:38.251Z,17.50
2023-06-18T22:57:05.840Z,17.50
2023-06-18T22:59:33.089Z,17.40
2023-06-18T23:02:00.308Z,17.40
2023-06-18T23:04:27.399Z,17.40
2023-06-18T23:06:54.664Z,17.30
2023-06-18T23:09:21.890Z,17.30
2023-06-18T23:11:49.099Z,17.30
2023-06-18T23:14:19.090Z,17.30
2023-06-18T23:16:46.485Z,17.20
2023-06-18T23:19:13.746Z,17.20
2023-06-18T23:21:47.898Z,17.20
2023-06-18T23:24:16.221Z,17.20
2023-06-18T23:26:43.430Z,17.20
2023-06-18T23:29:10.993Z,17.10
2023-06-18T23:31:39.459Z,17.10
2023-06-18T23:34:10.346Z,17.10
2023-06-18T23:36:38.045Z,17.10
2023-06-18T23:39:05.896Z,17.20
2023-06-18T23:41:33.078Z,17.20
2023-06-18T23:44:00.249Z,17.10
2023-06-18T23:46:27.554Z,17.10
2023-06-18T23:48:54.808Z,17.10
2023-06-18T23:51:21.998Z,17.10
2023-06-18T23:53:49.302Z,17.00
2023-06-18T23:56:16.816Z,17.00
2023-06-18T23:58:44.010Z,17.00
